Time;durP1;ratioP1;P1;durP2;ratioP2;P2;SDS_P1;SDS_P2;PMS_P1;PMS_P2;Temp;Humidity;BMP_temperature;BMP_pressure;BME280_temperature;BME280_humidity;BME280_pressure;Samples;Min_cycle;Max_cycle;Signal;HPM_P1;HPM_P2
2022/04/19 00:01:51;;;;;;;7.38;5.25;;;5.00;99.90;5.40;98772.00;;;;5000563;28;82630;-56
2022/04/19 00:04:18;;;;;;;9.25;5.82;;;5.00;99.90;5.30;98772.00;;;;5004217;28;82561;-57
2022/04/19 00:06:46;;;;;;;8.70;5.22;;;5.00;99.90;5.30;98755.00;;;;4987291;28;83443;-56
2022/04/19 00:09:12;;;;;;;11.55;5.38;;;5.00;99.90;5.40;98760.00;;;;5020582;28;83178;-61
2022/04/19 00:11:38;;;;;;;8.82;5.18;;;5.00;99.90;5.30;98767.00;;;;5020806;28;82861;-62
2022/04/19 00:14:07;;;;;;;9.50;5.25;;;5.00;99.90;5.30;98761.00;;;;5004674;28;82558;-62
2022/04/19 00:16:38;;;;;;;10.10;5.35;;;5.00;99.90;5.30;98761.00;;;;5004839;28;82637;-62
2022/04/19 00:19:05;;;;;;;7.97;5.00;;;5.00;99.90;5.40;98758.00;;;;5004297;28;82785;-61
2022/04/19 00:21:31;;;;;;;9.30;5.15;;;5.00;99.90;5.30;98763.00;;;;5004675;28;82482;-62
2022/04/19 00:23:58;;;;;;;8.35;4.78;;;5.00;99.90;5.40;98758.00;;;;5004663;28;82496;-62
2022/04/19 00:26:25;;;;;;;6.82;5.07;;;5.00;99.90;5.40;98756.00;;;;5019922;28;82179;-62
2022/04/19 00:28:51;;;;;;;8.07;4.82;;;5.00;99.90;5.40;98753.00;;;;5003893;28;82094;-63
2022/04/19 00:31:17;;;;;;;9.32;5.40;;;5.00;99.90;5.40;98756.00;;;;4998997;28;83161;-57
2022/04/19 00:33:44;;;;;;;12.60;5.47;;;5.00;99.90;5.40;98752.00;;;;5002869;28;82225;-56
2022/04/19 00:36:11;;;;;;;7.80;5.00;;;5.00;99.90;5.40;98757.00;;;;5003406;28;82121;-57
2022/04/19 00:38:38;;;;;;;8.70;5.63;;;5.00;99.90;5.30;98758.00;;;;5004048;28;82374;-54
2022/04/19 00:41:04;;;;;;;10.73;5.50;;;5.00;99.90;5.30;98750.00;;;;5004516;28;82343;-56
2022/04/19 00:43:30;;;;;;;11.18;5.85;;;5.00;99.90;5.30;98752.00;;;;5004164;28;82916;-55
2022/04/19 00:45:56;;;;;;;7.72;5.85;;;5.00;99.90;5.30;98749.00;;;;5020182;28;83651;-55
2022/04/19 00:48:22;;;;;;;11.02;5.97;;;5.00;99.90;5.30;98751.00;;;;5004537;28;81952;-54
2022/04/19 00:50:50;;;;;;;11.75;6.30;;;5.00;99.90;5.30;98757.00;;;;5003884;28;82235;-55
2022/04/19 00:53:17;;;;;;;8.88;5.78;;;4.80;99.90;5.20;98749.00;;;;5019626;28;83461;-54
2022/04/19 00:55:45;;;;;;;10.80;5.60;;;4.80;99.90;5.20;98739.00;;;;5002795;28;84616;-53
2022/04/19 00:58:14;;;;;;;12.07;5.95;;;4.70;99.90;5.10;98750.00;;;;5001794;28;81935;-53
2022/04/19 01:00:45;;;;;;;11.95;6.15;;;4.70;99.90;5.10;98736.00;;;;5002640;28;82362;-50
2022/04/19 01:03:14;;;;;;;9.98;5.80;;;4.70;99.90;5.00;98743.00;;;;5019457;28;83265;-62
2022/04/19 01:05:45;;;;;;;14.90;6.40;;;4.70;99.90;5.10;98748.00;;;;5001979;28;82155;-62
2022/04/19 01:08:15;;;;;;;10.45;5.70;;;4.70;99.90;5.10;98732.00;;;;5002819;28;82816;-62
2022/04/19 01:10:45;;;;;;;11.60;6.07;;;4.70;99.90;5.10;98723.00;;;;5003623;28;82249;-62
2022/04/19 01:13:18;;;;;;;12.45;6.55;;;4.70;99.90;5.10;98728.00;;;;5020215;28;82497;-61
2022/04/19 01:15:55;;;;;;;12.85;5.32;;;4.70;99.90;5.10;98729.00;;;;5002864;28;82317;-62
2022/04/19 01:18:24;;;;;;;9.25;5.72;;;4.70;99.90;5.10;98729.00;;;;5003230;28;81908;-62
2022/04/19 01:20:55;;;;;;;11.63;5.40;;;4.70;99.90;5.10;98728.00;;;;5003445;28;82214;-62
2022/04/19 01:23:22;;;;;;;12.10;5.90;;;4.60;99.90;5.10;98719.00;;;;5002842;28;82470;-58
2022/04/19 01:25:49;;;;;;;8.52;5.47;;;4.70;99.90;5.10;98722.00;;;;5003229;28;82444;-59
2022/04/19 01:28:18;;;;;;;9.45;5.20;;;4.70;99.90;5.00;98729.00;;;;5002818;28;82003;-58
2022/04/19 01:30:45;;;;;;;8.50;5.05;;;4.60;99.90;5.00;98722.00;;;;5002413;28;82457;-58
2022/04/19 01:33:16;;;;;;;10.02;5.57;;;4.60;99.90;5.00;98718.00;;;;4986104;28;83753;-58
2022/04/19 01:35:46;;;;;;;8.02;4.80;;;4.60;99.90;4.90;98730.00;;;;5002944;28;84515;-58
2022/04/19 01:38:14;;;;;;;8.35;5.40;;;4.50;99.90;4.90;98715.00;;;;5002635;28;81888;-57
2022/04/19 01:40:41;;;;;;;8.27;5.05;;;4.50;99.90;4.80;98732.00;;;;5002632;28;82440;-57
2022/04/19 01:43:11;;;;;;;8.20;5.28;;;4.50;99.90;4.90;98723.00;;;;5002524;28;82505;-54
2022/04/19 01:45:46;;;;;;;9.07;5.03;;;4.40;99.90;4.80;98722.00;;;;5002419;28;82482;-55
2022/04/19 01:48:19;;;;;;;8.68;5.43;;;4.40;99.90;4.70;98732.00;;;;4998708;28;82369;-54
2022/04/19 01:50:45;;;;;;;9.88;5.63;;;4.40;99.90;4.70;98740.00;;;;5035732;28;82348;-57
2022/04/19 01:53:14;;;;;;;8.68;5.32;;;4.30;99.90;4.60;98716.00;;;;5002155;28;83752;-56
2022/04/19 01:55:42;;;;;;;9.02;5.85;;;4.20;99.90;4.50;98723.00;;;;5017694;28;85213;-53
2022/04/19 01:58:28;;;;;;;9.93;5.70;;;4.20;99.90;4.50;98733.00;;;;4999524;28;82874;-55
2022/04/19 02:00:55;;;;;;;8.13;5.70;;;4.10;99.90;4.40;98732.00;;;;5001503;28;82828;-57
2022/04/19 02:03:23;;;;;;;8.38;5.10;;;4.10;99.90;4.40;98738.00;;;;5001761;28;82622;-56
2022/04/19 02:05:50;;;;;;;9.75;6.18;;;4.00;99.90;4.30;98743.00;;;;4993207;28;83539;-53
2022/04/19 02:08:16;;;;;;;10.57;5.50;;;3.90;99.90;4.30;98733.00;;;;5006641;28;81874;-53
2022/04/19 02:10:42;;;;;;;7.40;5.40;;;3.90;99.90;4.30;98738.00;;;;5022799;28;82319;-52
2022/04/19 02:13:08;;;;;;;12.07;6.25;;;3.90;99.90;4.30;98731.00;;;;5005498;28;83246;-56
2022/04/19 02:15:53;;;;;;;17.25;6.03;;;3.90;99.90;4.30;98729.00;;;;5007261;28;82305;-56
2022/04/19 02:18:25;;;;;;;10.65;5.90;;;3.90;99.90;4.30;98741.00;;;;5022245;28;82186;-57
2022/04/19 02:20:52;;;;;;;7.97;6.05;;;3.90;99.90;4.30;98738.00;;;;5006339;28;82417;-57
2022/04/19 02:23:18;;;;;;;7.93;5.97;;;3.90;99.90;4.20;98722.00;;;;5004999;28;83433;-57
2022/04/19 02:25:47;;;;;;;5.97;5.03;;;3.90;99.90;4.20;98734.00;;;;5005306;28;83601;-56
2022/04/19 02:28:14;;;;;;;11.18;5.75;;;3.90;99.90;4.30;98739.00;;;;5005150;28;81917;-59
2022/04/19 02:30:53;;;;;;;8.98;5.47;;;3.90;99.90;4.30;98740.00;;;;5004746;28;83834;-59
2022/04/19 02:33:25;;;;;;;7.57;5.28;;;3.90;99.90;4.30;98748.00;;;;5005041;28;82819;-59
2022/04/19 02:35:52;;;;;;;10.20;5.65;;;3.90;99.90;4.30;98749.00;;;;5022344;28;82256;-59
2022/04/19 02:38:19;;;;;;;8.68;5.53;;;3.90;99.90;4.30;98753.00;;;;5006426;28;81932;-59
2022/04/19 02:40:48;;;;;;;10.02;5.70;;;4.00;99.90;4.30;98760.00;;;;5022134;28;85245;-59
2022/04/19 02:43:16;;;;;;;14.02;5.35;;;4.00;99.90;4.30;98758.00;;;;5022291;28;82662;-57
2022/04/19 02:45:45;;;;;;;7.13;5.40;;;4.00;99.90;4.30;98767.00;;;;5004626;28;82459;-59
2022/04/19 02:48:18;;;;;;;10.02;6.03;;;4.00;99.90;4.40;98776.00;;;;5004804;28;82950;-59
2022/04/19 02:50:49;;;;;;;9.25;5.70;;;4.00;99.90;4.40;98775.00;;;;5004975;28;84428;-59
2022/04/19 02:53:15;;;;;;;10.23;5.60;;;4.00;99.90;4.40;98785.00;;;;5006018;28;82812;-59
2022/04/19 02:55:42;;;;;;;9.02;5.30;;;4.00;99.90;4.40;98791.00;;;;5021608;28;82938;-64
2022/04/19 02:58:08;;;;;;;9.77;5.53;;;4.10;99.90;4.50;98788.00;;;;5003715;28;82243;-57
2022/04/19 03:00:38;;;;;;;7.88;5.30;;;4.10;99.90;4.50;98799.00;;;;5003619;28;82585;-57
2022/04/19 03:03:05;;;;;;;11.95;5.35;;;4.10;99.90;4.60;98799.00;;;;5004970;28;82756;-56
2022/04/19 03:05:37;;;;;;;9.63;4.70;;;4.10;99.90;4.60;98798.00;;;;5021427;28;82506;-54
2022/04/19 03:08:06;;;;;;;;;;;4.20;99.90;4.70;98794.00;;;;5005745;28;82299;-57
2022/04/19 03:10:33;;;;;;;7.22;4.80;;;4.30;99.90;4.70;98799.00;;;;5005788;28;81943;-62
2022/04/19 03:12:59;;;;;;;8.85;4.68;;;4.30;99.90;4.70;98794.00;;;;5021448;28;83659;-62
2022/04/19 03:15:34;;;;;;;11.48;5.35;;;4.30;99.90;4.70;98799.00;;;;5004831;28;83492;-63
2022/04/19 03:18:01;;;;;;;7.40;5.25;;;4.30;99.90;4.80;98786.00;;;;4988970;28;82180;-55
2022/04/19 03:20:31;;;;;;;16.50;5.90;;;4.30;99.90;4.80;98792.00;;;;5004219;28;82413;-55
2022/04/19 03:28:31;;;;;;;13.88;6.10;;;4.40;99.90;5.00;98791.00;;;;5003952;28;82046;-54
2022/04/19 03:30:58;;;;;;;12.90;5.88;;;4.50;99.90;5.00;98780.00;;;;5004750;28;82372;-55
2022/04/19 03:33:24;;;;;;;10.65;5.70;;;4.50;99.90;5.10;98793.00;;;;5021001;28;83618;-55
2022/04/19 03:35:50;;;;;;;8.27;5.57;;;4.60;99.90;5.10;98767.00;;;;5005213;28;82427;-57
2022/04/19 03:38:16;;;;;;;8.50;5.35;;;4.70;99.90;5.20;98784.00;;;;5020262;28;83337;-57
2022/04/19 03:40:46;;;;;;;10.13;5.57;;;4.70;99.90;5.20;98786.00;;;;5020467;28;82451;-54
2022/04/19 03:43:12;;;;;;;10.75;5.03;;;4.70;99.90;5.20;98786.00;;;;5003657;28;82371;-57
2022/04/19 03:45:38;;;;;;;10.63;5.55;;;4.60;99.90;5.20;98797.00;;;;5003516;28;83063;-58
2022/04/19 03:48:05;;;;;;;11.32;5.50;;;4.70;99.90;5.10;98785.00;;;;5002782;28;82743;-58
2022/04/19 03:50:33;;;;;;;10.73;5.38;;;4.60;99.90;5.20;98784.00;;;;4986801;28;83466;-58
2022/04/19 03:52:59;;;;;;;10.15;5.20;;;4.70;99.90;5.20;98791.00;;;;5004476;28;83665;-57
2022/04/19 03:55:26;;;;;;;10.40;5.18;;;4.70;99.90;5.20;98773.00;;;;5003649;28;82419;-58
2022/04/19 03:57:53;;;;;;;10.65;4.95;;;4.70;99.90;5.30;98780.00;;;;5019184;28;82384;-58
2022/04/19 04:00:21;;;;;;;10.57;5.13;;;4.80;99.90;5.40;98783.00;;;;5003100;28;82195;-58
2022/04/19 04:02:48;;;;;;;13.13;4.85;;;4.80;99.90;5.50;98786.00;;;;5018399;28;83752;-58
2022/04/19 04:05:32;;;;;;;13.20;5.35;;;4.90;99.90;5.50;98780.00;;;;5002542;28;83361;-57
2022/04/19 04:07:59;;;;;;;10.88;5.60;;;4.90;99.90;5.40;98805.00;;;;5004655;28;81930;-55
2022/04/19 04:10:30;;;;;;;10.52;5.13;;;4.90;99.90;5.40;98797.00;;;;5003852;28;82243;-57
2022/04/19 04:12:58;;;;;;;10.10;4.72;;;4.80;99.90;5.40;98782.00;;;;5005198;28;82609;-58
2022/04/19 04:15:25;;;;;;;9.93;4.68;;;4.80;99.90;5.50;98787.00;;;;5019635;28;82519;-59
2022/04/19 04:17:51;;;;;;;7.75;4.93;;;4.90;99.90;5.40;98784.00;;;;5005259;28;82132;-58
2022/04/19 04:20:17;;;;;;;12.40;5.28;;;4.90;99.90;5.40;98791.00;;;;5003551;28;83689;-58
2022/04/19 04:22:43;;;;;;;8.25;4.47;;;4.90;99.90;5.50;98784.00;;;;5003310;28;82686;-59
2022/04/19 04:25:10;;;;;;;8.52;4.70;;;4.90;99.90;5.50;98787.00;;;;5003406;28;82698;-59
2022/04/19 04:27:37;;;;;;;6.22;4.43;;;5.00;99.90;5.50;98785.00;;;;5000778;28;82994;-58
2022/04/19 04:30:06;;;;;;;6.75;4.32;;;5.00;99.90;5.50;98784.00;;;;5010801;28;82268;-54
2022/04/19 04:32:38;;;;;;;7.85;4.18;;;5.00;99.90;5.40;98798.00;;;;5014737;28;82579;-51
2022/04/19 04:35:07;;;;;;;8.15;4.25;;;4.90;99.90;5.50;98785.00;;;;5018616;28;82663;-50
2022/04/19 04:37:33;;;;;;;9.32;4.60;;;5.00;99.90;5.50;98786.00;;;;5003248;28;81973;-55
2022/04/19 04:40:03;;;;;;;11.27;4.05;;;5.00;99.90;5.60;98784.00;;;;5003299;28;83841;-57
2022/04/19 04:42:29;;;;;;;6.15;3.92;;;5.00;99.90;5.60;98786.00;;;;5004216;28;83690;-58
2022/04/19 04:45:06;;;;;;;8.15;4.10;;;5.10;99.90;5.60;98778.00;;;;5005118;28;82551;-58
2022/04/19 04:50:18;;;;;;;9.07;4.07;;;5.10;99.90;5.60;98796.00;;;;4986331;28;85139;-58
2022/04/19 04:52:44;;;;;;;8.52;4.20;;;5.10;99.90;5.70;98803.00;;;;4985975;28;83527;-58
2022/04/19 04:55:10;;;;;;;10.90;3.90;;;5.20;99.90;5.90;98805.00;;;;5019269;28;83411;-59
2022/04/19 04:57:37;;;;;;;8.85;4.07;;;5.30;99.90;5.90;98811.00;;;;5001493;28;82018;-58
2022/04/19 05:00:05;;;;;;;10.02;4.30;;;5.40;99.90;5.80;98813.00;;;;5002738;28;83051;-59
2022/04/19 05:02:56;;;;;;;8.98;4.25;;;5.40;99.90;5.90;98803.00;;;;5016294;28;82583;-54
2022/04/19 05:05:23;;;;;;;11.35;4.38;;;5.40;99.90;5.90;98808.00;;;;5001981;28;82346;-56
2022/04/19 05:07:54;;;;;;;7.80;3.95;;;5.30;99.90;5.80;98814.00;;;;5003591;28;81906;-57
2022/04/19 05:10:20;;;;;;;7.72;4.07;;;5.20;99.90;5.70;98796.00;;;;4985979;28;84814;-55
2022/04/19 05:12:47;;;;;;;8.98;4.13;;;5.20;99.90;5.70;98803.00;;;;5018812;28;82070;-55
2022/04/19 05:15:20;;;;;;;8.93;3.63;;;5.20;99.90;5.80;98796.00;;;;5002832;28;82326;-53
2022/04/19 05:17:47;;;;;;;10.90;4.25;;;5.20;99.90;5.80;98803.00;;;;5001876;28;82923;-55
2022/04/19 05:20:16;;;;;;;11.93;4.25;;;5.30;99.90;5.80;98800.00;;;;5002176;28;82563;-52
2022/04/19 05:22:42;;;;;;;7.10;3.70;;;5.30;99.90;5.90;98798.00;;;;5003031;28;83848;-51
2022/04/19 05:25:10;;;;;;;7.97;3.95;;;5.30;99.90;5.80;98803.00;;;;5018116;28;82365;-51
2022/04/19 05:27:37;;;;;;;11.48;4.60;;;5.30;99.90;5.90;98804.00;;;;5001518;28;82539;-54
2022/04/19 05:30:05;;;;;;;10.77;3.80;;;5.30;99.90;6.00;98788.00;;;;4984809;28;82221;-51
2022/04/19 05:32:31;;;;;;;8.75;3.95;;;5.40;99.90;6.00;98784.00;;;;4984438;28;83290;-52
2022/04/19 05:34:57;;;;;;;10.50;4.50;;;5.40;99.90;6.10;98798.00;;;;5001456;28;81770;-52
2022/04/19 05:37:24;;;;;;;11.13;4.50;;;5.50;99.90;6.30;98794.00;;;;5001738;28;82004;-57
2022/04/19 05:39:51;;;;;;;8.75;3.97;;;5.70;99.90;6.40;98785.00;;;;5001299;28;83390;-54
2022/04/19 05:42:18;;;;;;;8.52;4.10;;;5.80;99.90;6.50;98794.00;;;;5004509;28;83480;-54
2022/04/19 05:44:47;;;;;;;9.15;4.30;;;5.90;99.90;6.50;98809.00;;;;5005274;28;84279;-52
2022/04/19 05:47:17;;;;;;;8.52;4.35;;;5.90;99.90;6.40;98807.00;;;;5005254;28;81984;-53
2022/04/19 05:49:45;;;;;;;8.68;4.32;;;5.80;99.90;6.50;98807.00;;;;5004706;28;82547;-54
2022/04/19 05:52:11;;;;;;;11.85;4.20;;;5.90;99.90;6.50;98807.00;;;;5005524;28;83019;-53
2022/04/19 05:54:38;;;;;;;12.95;3.92;;;5.80;99.90;6.60;98809.00;;;;5005067;28;82644;-52
2022/04/19 05:57:04;;;;;;;7.32;3.60;;;5.90;99.90;6.50;98808.00;;;;5005136;28;81776;-55
2022/04/19 05:59:30;;;;;;;13.65;3.70;;;5.90;99.90;6.40;98822.00;;;;5006129;28;82630;-57
2022/04/19 06:04:52;;;;;;;10.00;4.10;;;5.90;99.90;6.40;98814.00;;;;5005508;28;82559;-56
2022/04/19 06:07:21;;;;;;;9.63;4.32;;;5.80;99.90;6.40;98825.00;;;;5004878;28;82825;-51
2022/04/19 06:09:49;;;;;;;12.65;3.83;;;5.80;99.90;6.50;98815.00;;;;5021983;28;82340;-49
2022/04/19 06:12:15;;;;;;;14.93;4.03;;;5.90;99.90;6.70;98815.00;;;;5005233;28;82700;-54
2022/04/19 06:14:48;;;;;;;8.27;3.60;;;6.00;99.90;6.70;98827.00;;;;5005550;28;82616;-52
2022/04/19 06:17:17;;;;;;;6.00;3.35;;;6.10;99.90;6.70;98817.00;;;;5004697;28;82335;-54
2022/04/19 06:19:44;;;;;;;6.82;3.65;;;6.20;99.90;6.60;98826.00;;;;5000762;28;82465;-52
2022/04/19 06:22:11;;;;;;;7.40;3.63;;;6.10;99.90;6.90;98815.00;;;;4999821;28;83513;-52
2022/04/19 06:24:45;;;;;;;6.15;3.55;;;6.30;99.90;7.00;98833.00;;;;5022107;28;82048;-55
2022/04/19 06:27:11;;;;;;;8.73;3.30;;;6.30;99.90;7.30;98817.00;;;;5004414;28;82931;-55
2022/04/19 06:29:37;;;;;;;10.65;3.53;;;6.70;99.90;7.60;98800.00;;;;4987967;28;82471;-55
2022/04/19 06:32:04;;;;;;;6.38;3.67;;;6.90;99.90;7.70;98817.00;;;;5020782;28;83922;-54
2022/04/19 06:34:38;;;;;;;8.20;3.90;;;6.90;99.90;7.70;98805.00;;;;5005132;28;84465;-52
2022/04/19 06:37:16;;;;;;;8.00;3.95;;;6.90;99.90;7.40;98820.00;;;;5004843;28;82300;-55
2022/04/19 06:39:46;;;;;;;6.18;3.72;;;6.80;99.90;7.30;98847.00;;;;5005123;28;82408;-56
2022/04/19 06:42:13;;;;;;;9.63;3.42;;;6.70;99.90;7.30;98844.00;;;;5004916;28;83223;-54
2022/04/19 06:44:58;;;;;;;7.25;3.55;;;6.60;99.90;7.20;98830.00;;;;5005684;28;81838;-53
2022/04/19 06:47:29;;;;;;;7.60;3.63;;;6.60;99.90;7.30;98834.00;;;;4997096;28;82476;-52
2022/04/19 06:49:59;;;;;;;7.63;3.42;;;6.70;99.90;7.60;98818.00;;;;5006363;28;82665;-55
2022/04/19 06:52:27;;;;;;;12.18;3.53;;;6.90;99.90;7.50;98836.00;;;;4987224;28;85298;-53
2022/04/19 06:54:56;;;;;;;5.93;3.60;;;6.80;99.90;7.50;98819.00;;;;5004628;28;83910;-55
2022/04/19 06:57:23;;;;;;;7.00;3.50;;;6.90;99.90;7.70;98817.00;;;;5003450;28;82919;-53
2022/04/19 06:59:49;;;;;;;5.85;3.38;;;7.00;99.90;7.90;98804.00;;;;5003659;28;82158;-54
2022/04/19 07:02:16;;;;;;;5.38;3.67;;;7.10;99.90;8.00;98803.00;;;;5005820;28;82390;-54
2022/04/19 07:05:10;;;;;;;12.27;3.72;;;7.30;99.90;8.20;98817.00;;;;4995099;28;85074;-54
2022/04/19 07:07:42;;;;;;;6.90;3.38;;;7.50;99.90;8.30;98824.00;;;;4987502;28;82040;-56
2022/04/19 07:10:12;;;;;;;5.45;3.05;;;7.60;99.90;8.40;98828.00;;;;5004861;28;82349;-54
2022/04/19 07:12:39;;;;;;;11.40;3.65;;;7.60;99.90;8.40;98831.00;;;;5003867;28;83956;-55
2022/04/19 07:15:15;;;;;;;9.20;3.42;;;7.60;99.90;8.40;98818.00;;;;5005091;28;81925;-56
2022/04/19 07:17:46;;;;;;;5.78;3.08;;;7.70;99.90;8.50;98813.00;;;;5004813;28;81991;-55
2022/04/19 07:28:35;;;;;;;17.23;4.00;;;7.40;99.90;8.10;98824.00;;;;5004262;28;81991;-54
2022/04/19 07:31:03;;;;;;;14.07;4.28;;;7.50;99.90;8.20;98826.00;;;;5004359;28;83617;-52
2022/04/19 07:33:31;;;;;;;11.45;3.83;;;7.40;99.90;8.30;98830.00;;;;5003116;28;82897;-54
2022/04/19 07:35:59;;;;;;;10.07;3.72;;;7.60;99.90;8.50;98838.00;;;;5003047;28;84049;-50
2022/04/19 07:38:25;;;;;;;7.28;3.85;;;7.70;99.90;8.40;98831.00;;;;5003391;28;81898;-50
2022/04/19 07:41:12;;;;;;;7.07;3.78;;;7.70;99.90;8.50;98841.00;;;;5003683;28;83979;-52
2022/04/19 07:43:42;;;;;;;12.30;4.43;;;7.80;99.90;8.60;98852.00;;;;5003158;28;83799;-55
2022/04/19 07:46:11;;;;;;;11.55;3.90;;;7.90;99.90;8.60;98858.00;;;;5018393;28;82491;-56
2022/04/19 07:48:38;;;;;;;9.00;3.45;;;8.00;99.90;8.70;98849.00;;;;4999863;28;83457;-57
2022/04/19 07:51:05;;;;;;;9.90;3.88;;;8.00;99.90;8.70;98840.00;;;;5033027;28;82498;-54
2022/04/19 07:53:34;;;;;;;8.65;3.80;;;7.90;99.90;8.50;98836.00;;;;5003587;28;82573;-57
2022/04/19 07:56:02;;;;;;;10.52;3.53;;;7.90;99.90;8.40;98848.00;;;;5004476;28;82601;-55
2022/04/19 07:58:29;;;;;;;10.23;3.80;;;7.80;99.90;8.40;98838.00;;;;5002281;28;82362;-49
2022/04/19 08:00:56;;;;;;;9.07;3.78;;;7.80;99.90;8.50;98841.00;;;;5003107;28;82572;-52
2022/04/19 08:03:22;;;;;;;10.93;4.40;;;7.80;99.90;8.60;98846.00;;;;5002474;28;83412;-55
2022/04/19 08:05:50;;;;;;;8.98;4.32;;;7.90;99.90;8.60;98848.00;;;;5004606;28;82239;-54
2022/04/19 08:08:18;;;;;;;11.55;4.00;;;7.90;99.90;8.60;98840.00;;;;5004588;28;81964;-55
2022/04/19 08:10:46;;;;;;;9.88;4.20;;;8.00;99.90;8.80;98839.00;;;;5003040;28;82371;-52
2022/04/19 08:13:13;;;;;;;8.35;3.92;;;8.10;99.90;8.60;98851.00;;;;5003911;28;83727;-54
2022/04/19 08:15:40;;;;;;;11.60;3.80;;;8.00;99.90;8.60;98844.00;;;;5004404;28;83242;-54
2022/04/19 08:18:14;;;;;;;9.88;4.20;;;8.00;99.90;8.60;98844.00;;;;5003267;28;82006;-53
2022/04/19 08:20:44;;;;;;;10.20;4.03;;;8.00;99.90;8.40;98843.00;;;;5002739;28;82822;-53
2022/04/19 08:23:11;;;;;;;7.28;3.75;;;7.80;99.90;8.50;98830.00;;;;5002848;28;82729;-52
2022/04/19 08:25:39;;;;;;;9.23;4.28;;;7.80;99.90;8.60;98841.00;;;;5004115;28;82507;-49
2022/04/19 08:28:07;;;;;;;11.80;4.10;;;7.90;99.90;8.50;98838.00;;;;5003108;28;82550;-51
2022/04/19 08:30:34;;;;;;;9.48;4.00;;;7.80;99.90;8.50;98840.00;;;;5020133;28;82230;-55
2022/04/19 08:33:02;;;;;;;9.23;3.72;;;7.90;99.90;8.50;98846.00;;;;5003116;28;82694;-53
2022/04/19 08:35:28;;;;;;;9.48;3.67;;;7.90;99.90;8.50;98840.00;;;;5003665;28;83428;-52
2022/04/19 08:37:55;;;;;;;11.20;4.38;;;7.90;99.90;8.60;98843.00;;;;5003645;28;82711;-55
2022/04/19 08:40:25;;;;;;;9.55;4.05;;;8.00;99.90;8.70;98847.00;;;;5003298;28;82350;-53
2022/04/19 08:42:56;;;;;;;7.63;4.10;;;8.10;99.90;8.70;98824.00;;;;5002620;28;82169;-54
2022/04/19 08:45:23;;;;;;;13.15;4.03;;;8.10;99.90;8.80;98833.00;;;;4986630;28;83559;-54
2022/04/19 08:47:50;;;;;;;7.53;3.10;;;8.20;99.90;8.90;98826.00;;;;5003836;28;82028;-52
2022/04/19 08:50:21;;;;;;;7.68;3.42;;;8.20;99.90;9.00;98833.00;;;;5003406;28;83901;-54
2022/04/19 08:57:29;;;;;;;9.85;3.50;;;8.30;99.90;9.00;98824.00;;;;5003315;28;83641;-53
2022/04/19 08:58:19;;;;;;;7.30;3.40;;;8.40;99.90;9.10;98820.00;;;;5002051;28;81928;-55
2022/04/19 09:00:45;;;;;;;8.38;3.72;;;8.50;99.90;9.10;98825.00;;;;5003657;28;82519;-54
2022/04/19 09:03:11;;;;;;;7.80;3.50;;;8.40;99.90;9.30;98826.00;;;;5002155;28;83582;-62
2022/04/19 09:05:52;;;;;;;7.82;3.50;;;8.60;99.90;9.30;98825.00;;;;4985195;28;84572;-63
2022/04/19 09:08:20;;;;;;;9.25;3.58;;;8.60;99.90;9.10;98814.00;;;;5003353;28;82422;-63
2022/04/19 09:10:46;;;;;;;10.13;3.72;;;8.50;99.90;9.30;98823.00;;;;5003390;28;83469;-63
2022/04/19 09:13:21;;;;;;;6.28;3.30;;;8.60;99.90;9.40;98816.00;;;;5000537;28;82597;-61
2022/04/19 09:15:48;;;;;;;6.90;3.80;;;8.70;99.90;9.60;98827.00;;;;4993035;28;82277;-63
2022/04/19 09:18:24;;;;;;;8.52;4.00;;;8.80;99.90;9.80;98814.00;;;;5007006;28;82044;-64
2022/04/19 09:20:55;;;;;;;8.23;3.80;;;9.00;99.90;9.90;98826.00;;;;5006020;28;82325;-62
2022/04/19 09:23:22;;;;;;;9.60;3.80;;;9.10;99.90;9.70;98829.00;;;;5006538;28;82606;-63
2022/04/19 09:26:08;;;;;;;9.85;3.63;;;9.00;99.90;9.80;98824.00;;;;5006719;28;82295;-63
2022/04/19 09:28:34;;;;;;;8.60;3.90;;;9.10;99.90;9.80;98827.00;;;;5007192;28;83182;-62
2022/04/19 09:31:11;;;;;;;7.90;4.32;;;9.10;99.90;9.90;98840.00;;;;4998024;28;82743;-63
2022/04/19 09:33:37;;;;;;;11.23;4.10;;;9.10;99.90;10.10;98815.00;;;;5006516;28;82609;-62
2022/04/19 09:36:04;;;;;;;10.70;3.75;;;9.30;99.90;10.10;98832.00;;;;5022284;28;81958;-63
2022/04/19 09:38:49;;;;;;;16.42;4.68;;;9.40;99.90;10.30;98831.00;;;;5007519;28;82336;-63
2022/04/19 09:41:35;;;;;;;8.32;4.50;;;9.50;99.90;10.40;98828.00;;;;5006704;28;82512;-63
2022/04/19 09:44:13;;;;;;;7.35;4.15;;;9.60;99.90;10.40;98831.00;;;;5006652;28;82924;-63
2022/04/19 09:46:41;;;;;;;6.63;4.13;;;9.60;99.90;10.20;98839.00;;;;5007404;28;82641;-63
2022/04/19 09:49:07;;;;;;;7.05;4.00;;;9.50;99.90;10.30;98844.00;;;;5006118;28;81850;-62
2022/04/19 09:51:35;;;;;;;11.13;4.00;;;9.50;99.90;10.40;98853.00;;;;5006773;28;82600;-62
2022/04/19 09:54:02;;;;;;;8.63;4.38;;;9.70;99.90;10.40;98835.00;;;;5005652;28;83221;-62
2022/04/19 09:56:37;;;;;;;8.88;4.15;;;9.70;99.90;10.50;98851.00;;;;5004763;28;83691;-63
2022/04/19 09:59:04;;;;;;;10.13;4.28;;;9.80;99.90;10.50;98842.00;;;;5004433;28;81929;-63
2022/04/19 10:09:38;;;;;;;9.55;4.15;;;10.10;99.90;10.80;98847.00;;;;5021493;28;82244;-57
2022/04/19 10:12:08;;;;;;;9.32;4.32;;;10.00;99.90;10.80;98834.00;;;;5005953;28;82262;-59
2022/04/19 10:14:36;;;;;;;11.32;4.25;;;10.10;99.90;10.90;98845.00;;;;5004445;28;83588;-56
2022/04/19 10:17:04;;;;;;;10.18;4.85;;;10.20;99.90;11.00;98858.00;;;;5006193;28;82462;-55
2022/04/19 10:19:31;;;;;;;6.50;3.70;;;10.40;99.90;11.30;98853.00;;;;5005545;28;82985;-58
2022/04/19 10:22:08;;;;;;;9.25;3.70;;;10.50;99.90;11.50;98858.00;;;;5021705;28;82225;-56
2022/04/19 10:24:52;;;;;;;12.07;3.95;;;10.60;99.90;11.20;98869.00;;;;5004431;28;82454;-58
2022/04/19 10:27:19;;;;;;;7.03;3.97;;;10.40;99.90;11.40;98846.00;;;;5004118;28;82157;-57
2022/04/19 10:29:48;;;;;;;7.63;4.00;;;10.60;99.90;11.30;98847.00;;;;5006564;28;82361;-54
2022/04/19 10:32:14;;;;;;;6.05;3.85;;;10.50;99.90;11.40;98850.00;;;;5004352;28;82189;-56
2022/04/19 10:34:44;;;;;;;7.22;3.38;;;10.50;99.90;11.30;98843.00;;;;5005709;28;82454;-55
2022/04/19 10:37:21;;;;;;;11.18;4.00;;;10.60;99.90;11.30;98868.00;;;;5006154;28;81616;-55
2022/04/19 10:40:14;;;;;;;8.82;3.42;;;10.50;99.90;11.40;98850.00;;;;5006251;28;82019;-55
2022/04/19 10:42:43;;;;;;;9.85;3.72;;;10.60;99.90;11.60;98861.00;;;;5006396;28;82300;-56
2022/04/19 10:45:12;;;;;;;8.27;3.38;;;10.60;99.90;11.40;98844.00;;;;5004785;28;83442;-57
2022/04/19 10:47:54;;;;;;;6.85;3.75;;;10.50;99.90;11.80;98830.00;;;;5004048;28;83387;-57
2022/04/19 10:50:35;;;;;;;8.63;3.53;;;10.80;99.90;12.00;98832.00;;;;5005580;28;81953;-56
2022/04/19 10:53:08;;;;;;;9.63;3.43;;;11.10;99.90;12.20;98829.00;;;;5005846;28;82441;-55
2022/04/19 10:55:57;;;;;;;9.15;3.30;;;11.30;99.90;12.30;98840.00;;;;5005443;28;83861;-56
2022/04/19 10:58:39;;;;;;;7.40;3.40;;;11.40;99.90;12.00;98826.00;;;;5003868;28;82507;-55
2022/04/19 11:01:08;;;;;;;7.53;3.25;;;11.30;99.90;12.10;98820.00;;;;5005386;28;82251;-57
2022/04/19 11:03:49;;;;;;;7.78;3.47;;;11.30;99.90;12.10;98832.00;;;;5005598;28;81874;-59
2022/04/19 11:06:32;;;;;;;;;;;11.20;99.90;11.90;98823.00;;;;5004680;28;82710;-56
2022/04/19 11:09:21;;;;;;;6.95;3.20;;;11.10;99.90;12.10;98820.00;;;;5005596;28;81867;-56
2022/04/19 11:12:10;;;;;;;7.30;3.47;;;11.30;99.90;12.10;98826.00;;;;5000831;28;82805;-57
2022/04/19 11:14:40;;;;;;;9.13;3.28;;;11.30;99.90;12.20;98817.00;;;;5005515;28;84099;-55
2022/04/19 11:17:21;;;;;;;9.38;3.10;;;11.40;99.90;12.00;98826.00;;;;5005307;28;82520;-55
2022/04/19 11:20:14;;;;;;;7.53;2.78;;;11.30;99.90;12.10;98822.00;;;;5005370;28;82630;-55
2022/04/19 11:22:57;;;;;;;8.15;2.70;;;11.40;99.90;12.40;98834.00;;;;5005340;28;82130;-57
2022/04/19 11:25:40;;;;;;;7.97;3.17;;;11.60;99.90;12.60;98822.00;;;;5003058;28;82061;-57
2022/04/19 11:28:09;;;;;;;6.65;3.42;;;11.80;99.90;12.90;98810.00;;;;5005189;28;83842;-56
2022/04/19 11:30:37;;;;;;;13.60;4.07;;;12.10;99.90;13.40;98812.00;;;;5004445;28;82330;-57
2022/04/19 11:33:05;;;;;;;11.60;3.22;;;12.50;99.90;13.40;98803.00;;;;5003131;28;82141;-55
2022/04/19 11:35:32;;;;;;;9.55;3.10;;;12.60;99.90;13.10;98812.00;;;;5004834;28;82323;-57
2022/04/19 11:38:04;;;;;;;6.45;2.78;;;12.30;99.90;12.80;98822.00;;;;5003222;28;83419;-56
2022/04/19 11:48:50;;;;;;;9.90;2.88;;;12.10;99.90;12.90;98797.00;;;;5004259;28;82507;-57
2022/04/19 11:51:21;;;;;;;7.18;2.45;;;12.10;99.90;12.80;98776.00;;;;5004742;28;82236;-58
2022/04/19 11:53:50;;;;;;;6.18;2.63;;;12.00;99.90;12.80;98798.00;;;;4989263;28;82302;-57
2022/04/19 11:56:16;;;;;;;8.90;2.72;;;12.10;99.90;12.90;98815.00;;;;4994251;28;82225;-59